sensor_id;sensor_type;location;lat;lon;timestamp;P1;durP1;ratioP1;P2;durP2;ratioP2
64065;SDS011;50318;54.760;9.408;2022-10-31T00:00:28;47.55;;;37.92;;
64065;SDS011;50318;54.760;9.408;2022-10-31T00:02:54;48.05;;;38.78;;
64065;SDS011;50318;54.760;9.408;2022-10-31T00:05:22;63.90;;;45.40;;
64065;SDS011;50318;54.760;9.408;2022-10-31T00:07:51;86.70;;;60.47;;
64065;SDS011;50318;54.760;9.408;2022-10-31T00:10:18;75.53;;;48.35;;
64065;SDS011;50318;54.760;9.408;2022-10-31T00:12:43;92.18;;;50.65;;
64065;SDS011;50318;54.760;9.408;2022-10-31T00:15:09;92.40;;;52.97;;
64065;SDS011;50318;54.760;9.408;2022-10-31T00:17:35;133.50;;;76.57;;
64065;SDS011;50318;54.760;9.408;2022-10-31T00:20:01;116.67;;;62.57;;
64065;SDS011;50318;54.760;9.408;2022-10-31T00:22:28;100.60;;;55.40;;
64065;SDS011;50318;54.760;9.408;2022-10-31T00:24:54;110.28;;;53.22;;
64065;SDS011;50318;54.760;9.408;2022-10-31T00:27:20;108.93;;;55.30;;
64065;SDS011;50318;54.760;9.408;2022-10-31T00:29:46;142.32;;;56.45;;
64065;SDS011;50318;54.760;9.408;2022-10-31T00:32:11;113.57;;;56.78;;
64065;SDS011;50318;54.760;9.408;2022-10-31T00:34:37;127.25;;;59.38;;
64065;SDS011;50318;54.760;9.408;2022-10-31T00:37:03;128.57;;;64.43;;
64065;SDS011;50318;54.760;9.408;2022-10-31T00:39:29;127.00;;;70.20;;
64065;SDS011;50318;54.760;9.408;2022-10-31T00:41:55;112.00;;;61.47;;
64065;SDS011;50318;54.760;9.408;2022-10-31T00:44:20;116.93;;;58.90;;
64065;SDS011;50318;54.760;9.408;2022-10-31T00:46:46;137.57;;;69.10;;
64065;SDS011;50318;54.760;9.408;2022-10-31T00:49:12;125.20;;;67.60;;
64065;SDS011;50318;54.760;9.408;2022-10-31T00:51:37;111.77;;;60.53;;
64065;SDS011;50318;54.760;9.408;2022-10-31T00:54:03;113.53;;;61.33;;
64065;SDS011;50318;54.760;9.408;2022-10-31T00:56:29;93.30;;;56.03;;
64065;SDS011;50318;54.760;9.408;2022-10-31T00:58:55;79.47;;;52.13;;
64065;SDS011;50318;54.760;9.408;2022-10-31T01:01:21;82.90;;;52.00;;
64065;SDS011;50318;54.760;9.408;2022-10-31T01:03:48;81.43;;;51.35;;
64065;SDS011;50318;54.760;9.408;2022-10-31T01:06:13;91.60;;;54.30;;
64065;SDS011;50318;54.760;9.408;2022-10-31T01:08:39;89.60;;;53.63;;
64065;SDS011;50318;54.760;9.408;2022-10-31T01:11:07;90.10;;;53.75;;
64065;SDS011;50318;54.760;9.408;2022-10-31T01:13:39;91.18;;;55.28;;
64065;SDS011;50318;54.760;9.408;2022-10-31T01:16:05;90.60;;;54.60;;
64065;SDS011;50318;54.760;9.408;2022-10-31T01:18:34;82.87;;;51.30;;
64065;SDS011;50318;54.760;9.408;2022-10-31T01:21:05;85.28;;;50.80;;
64065;SDS011;50318;54.760;9.408;2022-10-31T01:23:33;81.72;;;51.35;;
64065;SDS011;50318;54.760;9.408;2022-10-31T01:28:25;78.82;;;51.17;;
64065;SDS011;50318;54.760;9.408;2022-10-31T01:30:51;77.55;;;50.20;;
64065;SDS011;50318;54.760;9.408;2022-10-31T01:33:17;77.47;;;48.78;;
64065;SDS011;50318;54.760;9.408;2022-10-31T01:35:42;75.78;;;48.92;;
64065;SDS011;50318;54.760;9.408;2022-10-31T01:38:08;76.53;;;47.65;;
64065;SDS011;50318;54.760;9.408;2022-10-31T01:40:34;73.53;;;47.50;;
64065;SDS011;50318;54.760;9.408;2022-10-31T01:42:59;79.60;;;49.90;;
64065;SDS011;50318;54.760;9.408;2022-10-31T01:45:25;74.87;;;47.57;;
64065;SDS011;50318;54.760;9.408;2022-10-31T01:47:51;68.50;;;45.60;;
64065;SDS011;50318;54.760;9.408;2022-10-31T01:50:26;72.17;;;46.63;;
64065;SDS011;50318;54.760;9.408;2022-10-31T01:52:56;69.00;;;45.38;;
64065;SDS011;50318;54.760;9.408;2022-10-31T01:55:30;72.72;;;47.90;;
64065;SDS011;50318;54.760;9.408;2022-10-31T01:58:04;73.93;;;46.13;;
64065;SDS011;50318;54.760;9.408;2022-10-31T02:00:45;73.30;;;46.80;;
64065;SDS011;50318;54.760;9.408;2022-10-31T02:03:14;73.22;;;44.70;;
64065;SDS011;50318;54.760;9.408;2022-10-31T02:05:45;75.25;;;46.83;;
64065;SDS011;50318;54.760;9.408;2022-10-31T02:10:40;72.47;;;45.55;;
64065;SDS011;50318;54.760;9.408;2022-10-31T02:13:08;75.27;;;46.23;;
64065;SDS011;50318;54.760;9.408;2022-10-31T02:15:43;70.40;;;43.63;;
64065;SDS011;50318;54.760;9.408;2022-10-31T02:18:12;78.13;;;46.38;;
64065;SDS011;50318;54.760;9.408;2022-10-31T02:31:42;81.32;;;45.38;;
64065;SDS011;50318;54.760;9.408;2022-10-31T02:36:56;82.07;;;46.28;;
64065;SDS011;50318;54.760;9.408;2022-10-31T02:40:15;85.55;;;48.42;;
64065;SDS011;50318;54.760;9.408;2022-10-31T02:47:50;76.60;;;45.33;;
64065;SDS011;50318;54.760;9.408;2022-10-31T02:50:23;80.07;;;46.03;;
64065;SDS011;50318;54.760;9.408;2022-10-31T02:53:15;85.20;;;48.53;;
64065;SDS011;50318;54.760;9.408;2022-10-31T02:55:46;92.87;;;49.17;;
64065;SDS011;50318;54.760;9.408;2022-10-31T02:58:21;89.38;;;47.97;;
64065;SDS011;50318;54.760;9.408;2022-10-31T03:06:14;93.65;;;50.15;;
64065;SDS011;50318;54.760;9.408;2022-10-31T03:08:55;93.32;;;50.22;;
64065;SDS011;50318;54.760;9.408;2022-10-31T03:11:23;88.82;;;48.60;;
64065;SDS011;50318;54.760;9.408;2022-10-31T03:14:00;92.93;;;49.60;;
64065;SDS011;50318;54.760;9.408;2022-10-31T03:16:48;90.03;;;50.83;;
64065;SDS011;50318;54.760;9.408;2022-10-31T03:22:07;80.38;;;49.63;;
64065;SDS011;50318;54.760;9.408;2022-10-31T03:24:38;82.18;;;49.15;;
64065;SDS011;50318;54.760;9.408;2022-10-31T03:27:07;74.20;;;47.53;;
64065;SDS011;50318;54.760;9.408;2022-10-31T03:29:39;72.67;;;50.70;;
64065;SDS011;50318;54.760;9.408;2022-10-31T03:32:12;66.45;;;46.75;;
64065;SDS011;50318;54.760;9.408;2022-10-31T03:34:49;64.18;;;46.92;;
64065;SDS011;50318;54.760;9.408;2022-10-31T03:37:17;64.63;;;46.67;;
64065;SDS011;50318;54.760;9.408;2022-10-31T03:39:46;70.27;;;48.27;;
64065;SDS011;50318;54.760;9.408;2022-10-31T03:42:15;74.20;;;49.38;;
64065;SDS011;50318;54.760;9.408;2022-10-31T03:44:44;60.07;;;45.60;;
64065;SDS011;50318;54.760;9.408;2022-10-31T03:47:14;63.00;;;46.35;;
64065;SDS011;50318;54.760;9.408;2022-10-31T03:49:40;67.75;;;47.03;;
64065;SDS011;50318;54.760;9.408;2022-10-31T03:55:08;63.20;;;45.73;;
64065;SDS011;50318;54.760;9.408;2022-10-31T04:01:06;63.13;;;47.00;;
64065;SDS011;50318;54.760;9.408;2022-10-31T04:03:39;59.22;;;44.42;;
64065;SDS011;50318;54.760;9.408;2022-10-31T04:06:07;56.83;;;41.85;;
64065;SDS011;50318;54.760;9.408;2022-10-31T04:08:39;58.83;;;43.20;;
64065;SDS011;50318;54.760;9.408;2022-10-31T04:11:13;63.95;;;44.88;;
64065;SDS011;50318;54.760;9.408;2022-10-31T04:13:46;59.50;;;42.13;;
64065;SDS011;50318;54.760;9.408;2022-10-31T04:16:19;55.03;;;40.60;;
64065;SDS011;50318;54.760;9.408;2022-10-31T04:18:47;50.30;;;37.25;;
64065;SDS011;50318;54.760;9.408;2022-10-31T04:21:12;50.00;;;37.80;;
64065;SDS011;50318;54.760;9.408;2022-10-31T04:23:38;59.88;;;41.05;;
64065;SDS011;50318;54.760;9.408;2022-10-31T04:26:12;63.70;;;42.73;;
64065;SDS011;50318;54.760;9.408;2022-10-31T04:28:38;59.47;;;41.43;;
64065;SDS011;50318;54.760;9.408;2022-10-31T04:31:04;55.55;;;39.75;;
64065;SDS011;50318;54.760;9.408;2022-10-31T04:33:33;58.60;;;38.70;;
64065;SDS011;50318;54.760;9.408;2022-10-31T04:35:58;79.32;;;45.22;;
64065;SDS011;50318;54.760;9.408;2022-10-31T04:38:24;86.28;;;45.03;;
64065;SDS011;50318;54.760;9.408;2022-10-31T04:40:50;75.55;;;43.08;;
64065;SDS011;50318;54.760;9.408;2022-10-31T04:43:15;72.82;;;42.67;;
64065;SDS011;50318;54.760;9.408;2022-10-31T04:45:43;69.43;;;42.50;;
64065;SDS011;50318;54.760;9.408;2022-10-31T04:48:09;67.07;;;42.42;;
64065;SDS011;50318;54.760;9.408;2022-10-31T04:50:35;58.40;;;38.85;;
64065;SDS011;50318;54.760;9.408;2022-10-31T04:53:01;58.72;;;38.67;;
64065;SDS011;50318;54.760;9.408;2022-10-31T04:55:32;55.45;;;38.10;;
64065;SDS011;50318;54.760;9.408;2022-10-31T04:58:30;67.53;;;44.10;;
64065;SDS011;50318;54.760;9.408;2022-10-31T05:01:23;71.80;;;46.30;;
64065;SDS011;50318;54.760;9.408;2022-10-31T05:03:49;68.75;;;43.90;;
64065;SDS011;50318;54.760;9.408;2022-10-31T05:06:15;69.83;;;43.57;;
64065;SDS011;50318;54.760;9.408;2022-10-31T05:08:42;77.17;;;43.60;;
64065;SDS011;50318;54.760;9.408;2022-10-31T05:11:09;87.30;;;42.60;;
64065;SDS011;50318;54.760;9.408;2022-10-31T05:13:36;92.57;;;42.42;;
64065;SDS011;50318;54.760;9.408;2022-10-31T05:16:26;100.63;;;43.60;;
64065;SDS011;50318;54.760;9.408;2022-10-31T05:19:19;91.88;;;43.78;;
64065;SDS011;50318;54.760;9.408;2022-10-31T05:22:47;79.10;;;43.63;;
64065;SDS011;50318;54.760;9.408;2022-10-31T05:25:14;90.20;;;47.95;;
64065;SDS011;50318;54.760;9.408;2022-10-31T05:27:41;86.38;;;50.50;;
64065;SDS011;50318;54.760;9.408;2022-10-31T05:30:09;80.70;;;50.30;;
64065;SDS011;50318;54.760;9.408;2022-10-31T05:32:37;87.00;;;51.38;;
64065;SDS011;50318;54.760;9.408;2022-10-31T05:35:33;87.35;;;54.30;;
64065;SDS011;50318;54.760;9.408;2022-10-31T05:38:21;89.68;;;50.53;;
64065;SDS011;50318;54.760;9.408;2022-10-31T05:40:47;85.10;;;49.67;;
64065;SDS011;50318;54.760;9.408;2022-10-31T05:43:14;94.78;;;51.75;;
64065;SDS011;50318;54.760;9.408;2022-10-31T05:45:39;92.43;;;51.37;;
64065;SDS011;50318;54.760;9.408;2022-10-31T05:48:11;108.30;;;54.83;;
64065;SDS011;50318;54.760;9.408;2022-10-31T05:50:55;116.72;;;56.75;;
64065;SDS011;50318;54.760;9.408;2022-10-31T05:53:21;126.77;;;58.30;;
64065;SDS011;50318;54.760;9.408;2022-10-31T05:55:47;133.57;;;56.70;;
64065;SDS011;50318;54.760;9.408;2022-10-31T05:58:18;114.97;;;54.22;;
64065;SDS011;50318;54.760;9.408;2022-10-31T06:01:00;107.70;;;54.97;;
64065;SDS011;50318;54.760;9.408;2022-10-31T06:03:26;98.82;;;51.63;;
64065;SDS011;50318;54.760;9.408;2022-10-31T06:05:54;106.57;;;53.70;;
64065;SDS011;50318;54.760;9.408;2022-10-31T06:08:35;95.07;;;52.55;;
64065;SDS011;50318;54.760;9.408;2022-10-31T06:11:05;94.60;;;51.78;;
64065;SDS011;50318;54.760;9.408;2022-10-31T06:13:49;100.15;;;54.00;;
64065;SDS011;50318;54.760;9.408;2022-10-31T06:16:20;104.50;;;56.08;;
64065;SDS011;50318;54.760;9.408;2022-10-31T06:18:46;107.70;;;52.80;;
64065;SDS011;50318;54.760;9.408;2022-10-31T06:21:13;87.68;;;50.70;;
64065;SDS011;50318;54.760;9.408;2022-10-31T06:23:38;90.97;;;52.47;;
64065;SDS011;50318;54.760;9.408;2022-10-31T06:26:22;89.57;;;50.90;;
64065;SDS011;50318;54.760;9.408;2022-10-31T06:28:49;91.85;;;49.92;;
64065;SDS011;50318;54.760;9.408;2022-10-31T06:31:39;98.72;;;53.47;;
64065;SDS011;50318;54.760;9.408;2022-10-31T06:34:04;101.00;;;52.80;;
64065;SDS011;50318;54.760;9.408;2022-10-31T06:36:31;106.32;;;53.83;;
64065;SDS011;50318;54.760;9.408;2022-10-31T06:38:57;103.72;;;53.28;;
64065;SDS011;50318;54.760;9.408;2022-10-31T06:41:23;97.80;;;50.97;;
64065;SDS011;50318;54.760;9.408;2022-10-31T06:43:49;104.18;;;50.13;;
64065;SDS011;50318;54.760;9.408;2022-10-31T06:46:38;106.07;;;48.75;;
64065;SDS011;50318;54.760;9.408;2022-10-31T06:49:16;94.05;;;48.95;;
64065;SDS011;50318;54.760;9.408;2022-10-31T06:51:49;93.03;;;49.70;;
64065;SDS011;50318;54.760;9.408;2022-10-31T06:54:16;86.53;;;49.60;;
64065;SDS011;50318;54.760;9.408;2022-10-31T06:56:42;83.50;;;45.28;;
64065;SDS011;50318;54.760;9.408;2022-10-31T06:59:08;70.95;;;46.35;;
64065;SDS011;50318;54.760;9.408;2022-10-31T07:02:32;73.57;;;46.47;;
64065;SDS011;50318;54.760;9.408;2022-10-31T07:04:58;74.57;;;45.53;;
64065;SDS011;50318;54.760;9.408;2022-10-31T07:07:24;67.45;;;44.65;;
64065;SDS011;50318;54.760;9.408;2022-10-31T07:09:50;71.45;;;47.10;;
64065;SDS011;50318;54.760;9.408;2022-10-31T07:12:37;73.38;;;47.88;;
64065;SDS011;50318;54.760;9.408;2022-10-31T07:15:03;59.35;;;41.90;;
64065;SDS011;50318;54.760;9.408;2022-10-31T07:17:29;56.97;;;40.33;;
64065;SDS011;50318;54.760;9.408;2022-10-31T07:19:58;50.55;;;39.15;;
64065;SDS011;50318;54.760;9.408;2022-10-31T07:22:25;50.78;;;37.97;;
64065;SDS011;50318;54.760;9.408;2022-10-31T07:24:57;50.65;;;39.22;;
64065;SDS011;50318;54.760;9.408;2022-10-31T07:27:43;47.65;;;36.63;;
64065;SDS011;50318;54.760;9.408;2022-10-31T07:30:11;51.03;;;39.08;;
64065;SDS011;50318;54.760;9.408;2022-10-31T07:32:43;48.72;;;37.83;;
64065;SDS011;50318;54.760;9.408;2022-10-31T07:35:21;44.53;;;34.78;;
64065;SDS011;50318;54.760;9.408;2022-10-31T07:38:07;43.72;;;34.67;;
64065;SDS011;50318;54.760;9.408;2022-10-31T07:40:37;48.65;;;35.95;;
64065;SDS011;50318;54.760;9.408;2022-10-31T07:43:03;45.67;;;34.47;;
64065;SDS011;50318;54.760;9.408;2022-10-31T07:45:50;44.58;;;35.22;;
64065;SDS011;50318;54.760;9.408;2022-10-31T07:48:46;45.80;;;33.78;;
64065;SDS011;50318;54.760;9.408;2022-10-31T07:51:50;45.92;;;34.55;;
64065;SDS011;50318;54.760;9.408;2022-10-31T07:54:34;42.90;;;32.33;;
64065;SDS011;50318;54.760;9.408;2022-10-31T07:57:00;49.47;;;33.83;;
64065;SDS011;50318;54.760;9.408;2022-10-31T07:59:26;50.35;;;34.97;;
64065;SDS011;50318;54.760;9.408;2022-10-31T08:01:56;43.75;;;33.03;;
64065;SDS011;50318;54.760;9.408;2022-10-31T08:04:30;43.65;;;32.42;;
64065;SDS011;50318;54.760;9.408;2022-10-31T08:07:14;42.47;;;31.95;;
64065;SDS011;50318;54.760;9.408;2022-10-31T08:09:49;42.00;;;32.30;;
64065;SDS011;50318;54.760;9.408;2022-10-31T08:12:20;45.17;;;33.22;;
64065;SDS011;50318;54.760;9.408;2022-10-31T08:14:46;43.00;;;32.70;;
64065;SDS011;50318;54.760;9.408;2022-10-31T08:17:14;43.10;;;32.70;;
64065;SDS011;50318;54.760;9.408;2022-10-31T08:19:52;40.53;;;31.97;;
64065;SDS011;50318;54.760;9.408;2022-10-31T08:22:21;45.42;;;31.08;;
64065;SDS011;50318;54.760;9.408;2022-10-31T08:24:48;41.05;;;30.27;;
64065;SDS011;50318;54.760;9.408;2022-10-31T08:27:13;42.78;;;31.52;;
64065;SDS011;50318;54.760;9.408;2022-10-31T08:29:51;34.17;;;29.47;;
64065;SDS011;50318;54.760;9.408;2022-10-31T08:32:17;37.70;;;31.17;;
64065;SDS011;50318;54.760;9.408;2022-10-31T08:35:01;36.87;;;30.73;;
64065;SDS011;50318;54.760;9.408;2022-10-31T08:37:45;36.70;;;29.50;;
64065;SDS011;50318;54.760;9.408;2022-10-31T08:40:17;39.65;;;31.27;;
64065;SDS011;50318;54.760;9.408;2022-10-31T08:42:43;45.50;;;34.03;;
64065;SDS011;50318;54.760;9.408;2022-10-31T08:45:09;42.88;;;32.50;;
64065;SDS011;50318;54.760;9.408;2022-10-31T08:47:35;43.55;;;32.78;;
64065;SDS011;50318;54.760;9.408;2022-10-31T08:50:01;44.53;;;32.88;;
64065;SDS011;50318;54.760;9.408;2022-10-31T08:52:27;48.08;;;33.22;;
64065;SDS011;50318;54.760;9.408;2022-10-31T08:54:58;49.67;;;33.25;;
64065;SDS011;50318;54.760;9.408;2022-10-31T08:57:54;47.58;;;33.03;;
64065;SDS011;50318;54.760;9.408;2022-10-31T09:00:26;46.00;;;33.97;;
64065;SDS011;50318;54.760;9.408;2022-10-31T09:03:04;46.72;;;32.42;;
64065;SDS011;50318;54.760;9.408;2022-10-31T09:05:32;46.45;;;30.67;;
64065;SDS011;50318;54.760;9.408;2022-10-31T09:07:59;51.88;;;30.00;;
64065;SDS011;50318;54.760;9.408;2022-10-31T09:10:42;57.90;;;30.52;;
64065;SDS011;50318;54.760;9.408;2022-10-31T09:13:10;57.43;;;29.47;;
64065;SDS011;50318;54.760;9.408;2022-10-31T09:16:03;53.88;;;29.20;;
64065;SDS011;50318;54.760;9.408;2022-10-31T09:18:30;47.00;;;27.23;;
64065;SDS011;50318;54.760;9.408;2022-10-31T09:20:58;57.15;;;28.88;;
64065;SDS011;50318;54.760;9.408;2022-10-31T09:23:26;54.17;;;31.23;;
64065;SDS011;50318;54.760;9.408;2022-10-31T09:25:52;46.35;;;30.80;;
64065;SDS011;50318;54.760;9.408;2022-10-31T09:28:36;46.33;;;29.42;;
64065;SDS011;50318;54.760;9.408;2022-10-31T09:31:08;41.50;;;27.75;;
64065;SDS011;50318;54.760;9.408;2022-10-31T09:33:56;41.60;;;28.58;;
64065;SDS011;50318;54.760;9.408;2022-10-31T09:36:45;46.20;;;29.77;;
64065;SDS011;50318;54.760;9.408;2022-10-31T09:39:19;46.60;;;29.98;;
64065;SDS011;50318;54.760;9.408;2022-10-31T09:44:51;44.90;;;28.92;;
64065;SDS011;50318;54.760;9.408;2022-10-31T09:47:40;42.92;;;28.27;;
64065;SDS011;50318;54.760;9.408;2022-10-31T09:53:38;44.75;;;26.42;;
64065;SDS011;50318;54.760;9.408;2022-10-31T09:56:22;38.47;;;25.00;;
64065;SDS011;50318;54.760;9.408;2022-10-31T09:58:52;39.30;;;25.13;;
64065;SDS011;50318;54.760;9.408;2022-10-31T10:03:54;39.97;;;25.67;;
64065;SDS011;50318;54.760;9.408;2022-10-31T10:06:53;36.40;;;23.35;;
64065;SDS011;50318;54.760;9.408;2022-10-31T10:09:37;35.47;;;22.70;;
64065;SDS011;50318;54.760;9.408;2022-10-31T10:12:35;34.90;;;21.70;;
64065;SDS011;50318;54.760;9.408;2022-10-31T10:18:13;32.00;;;21.47;;
64065;SDS011;50318;54.760;9.408;2022-10-31T10:21:34;32.40;;;21.53;;
64065;SDS011;50318;54.760;9.408;2022-10-31T10:26:25;36.80;;;21.63;;
64065;SDS011;50318;54.760;9.408;2022-10-31T10:29:23;29.63;;;17.98;;
64065;SDS011;50318;54.760;9.408;2022-10-31T10:31:52;32.05;;;18.55;;
64065;SDS011;50318;54.760;9.408;2022-10-31T10:34:26;30.92;;;18.40;;
64065;SDS011;50318;54.760;9.408;2022-10-31T10:37:01;34.80;;;18.23;;
64065;SDS011;50318;54.760;9.408;2022-10-31T10:39:39;30.33;;;18.00;;
64065;SDS011;50318;54.760;9.408;2022-10-31T10:42:16;31.38;;;17.85;;
64065;SDS011;50318;54.760;9.408;2022-10-31T10:45:06;29.83;;;16.02;;
64065;SDS011;50318;54.760;9.408;2022-10-31T10:48:04;26.25;;;14.82;;
64065;SDS011;50318;54.760;9.408;2022-10-31T10:50:36;26.58;;;15.32;;
64065;SDS011;50318;54.760;9.408;2022-10-31T10:53:30;27.52;;;12.93;;
64065;SDS011;50318;54.760;9.408;2022-10-31T10:56:44;26.02;;;12.38;;
64065;SDS011;50318;54.760;9.408;2022-10-31T10:59:31;22.17;;;9.90;;
64065;SDS011;50318;54.760;9.408;2022-10-31T11:01:57;26.30;;;10.63;;
64065;SDS011;50318;54.760;9.408;2022-10-31T11:06:57;18.25;;;8.07;;
64065;SDS011;50318;54.760;9.408;2022-10-31T11:09:23;22.73;;;7.18;;
64065;SDS011;50318;54.760;9.408;2022-10-31T11:11:49;17.23;;;6.18;;
64065;SDS011;50318;54.760;9.408;2022-10-31T11:14:15;25.50;;;8.80;;
64065;SDS011;50318;54.760;9.408;2022-10-31T11:16:43;19.45;;;7.28;;
64065;SDS011;50318;54.760;9.408;2022-10-31T11:19:19;19.73;;;6.18;;
64065;SDS011;50318;54.760;9.408;2022-10-31T11:21:52;26.48;;;7.40;;
64065;SDS011;50318;54.760;9.408;2022-10-31T11:24:20;21.42;;;6.03;;
64065;SDS011;50318;54.760;9.408;2022-10-31T11:27:02;16.75;;;4.85;;
64065;SDS011;50318;54.760;9.408;2022-10-31T11:29:36;18.00;;;6.35;;
64065;SDS011;50318;54.760;9.408;2022-10-31T11:32:02;24.35;;;5.93;;
64065;SDS011;50318;54.760;9.408;2022-10-31T11:34:38;18.30;;;5.88;;
64065;SDS011;50318;54.760;9.408;2022-10-31T11:37:14;19.92;;;5.88;;
64065;SDS011;50318;54.760;9.408;2022-10-31T11:39:43;17.38;;;4.00;;
64065;SDS011;50318;54.760;9.408;2022-10-31T11:42:10;11.35;;;3.38;;
64065;SDS011;50318;54.760;9.408;2022-10-31T11:44:37;17.13;;;3.42;;
64065;SDS011;50318;54.760;9.408;2022-10-31T11:47:09;16.45;;;3.75;;
64065;SDS011;50318;54.760;9.408;2022-10-31T11:49:43;14.88;;;3.83;;
64065;SDS011;50318;54.760;9.408;2022-10-31T11:52:22;15.02;;;3.80;;
64065;SDS011;50318;54.760;9.408;2022-10-31T11:54:53;15.85;;;3.92;;
64065;SDS011;50318;54.760;9.408;2022-10-31T11:57:31;10.88;;;3.53;;
64065;SDS011;50318;54.760;9.408;2022-10-31T12:00:01;12.52;;;3.17;;
64065;SDS011;50318;54.760;9.408;2022-10-31T12:02:37;11.60;;;3.05;;
64065;SDS011;50318;54.760;9.408;2022-10-31T12:05:24;13.65;;;3.13;;
64065;SDS011;50318;54.760;9.408;2022-10-31T12:07:56;14.70;;;3.50;;
64065;SDS011;50318;54.760;9.408;2022-10-31T12:10:44;11.13;;;3.00;;
64065;SDS011;50318;54.760;9.408;2022-10-31T12:13:31;15.23;;;3.38;;
64065;SDS011;50318;54.760;9.408;2022-10-31T12:16:24;11.55;;;3.17;;
64065;SDS011;50318;54.760;9.408;2022-10-31T12:31:55;13.00;;;3.22;;
64065;SDS011;50318;54.760;9.408;2022-10-31T13:07:04;12.65;;;3.63;;
64065;SDS011;50318;54.760;9.408;2022-10-31T13:09:38;13.65;;;3.38;;
64065;SDS011;50318;54.760;9.408;2022-10-31T13:12:35;18.33;;;3.38;;
64065;SDS011;50318;54.760;9.408;2022-10-31T13:15:11;15.00;;;3.75;;
64065;SDS011;50318;54.760;9.408;2022-10-31T13:17:43;11.48;;;3.72;;
64065;SDS011;50318;54.760;9.408;2022-10-31T13:22:45;14.75;;;3.97;;
64065;SDS011;50318;54.760;9.408;2022-10-31T13:25:15;14.68;;;3.85;;
64065;SDS011;50318;54.760;9.408;2022-10-31T13:30:17;16.92;;;3.58;;
64065;SDS011;50318;54.760;9.408;2022-10-31T13:35:51;17.92;;;4.18;;
64065;SDS011;50318;54.760;9.408;2022-10-31T13:44:20;15.15;;;4.38;;
64065;SDS011;50318;54.760;9.408;2022-10-31T13:46:49;15.02;;;4.35;;
64065;SDS011;50318;54.760;9.408;2022-10-31T13:54:36;14.57;;;4.82;;
64065;SDS011;50318;54.760;9.408;2022-10-31T13:59:58;18.20;;;3.92;;
64065;SDS011;50318;54.760;9.408;2022-10-31T14:02:54;17.88;;;4.90;;
64065;SDS011;50318;54.760;9.408;2022-10-31T14:07:59;17.38;;;4.57;;
64065;SDS011;50318;54.760;9.408;2022-10-31T14:10:28;8.93;;;4.43;;
64065;SDS011;50318;54.760;9.408;2022-10-31T14:15:37;14.35;;;3.72;;
64065;SDS011;50318;54.760;9.408;2022-10-31T14:18:17;19.33;;;4.53;;
64065;SDS011;50318;54.760;9.408;2022-10-31T14:20:48;17.25;;;4.82;;
64065;SDS011;50318;54.760;9.408;2022-10-31T14:29:00;18.55;;;5.35;;
64065;SDS011;50318;54.760;9.408;2022-10-31T14:32:11;14.50;;;5.80;;
64065;SDS011;50318;54.760;9.408;2022-10-31T14:34:42;19.17;;;6.30;;
64065;SDS011;50318;54.760;9.408;2022-10-31T14:45:59;18.58;;;6.43;;
64065;SDS011;50318;54.760;9.408;2022-10-31T14:51:14;17.23;;;7.75;;
64065;SDS011;50318;54.760;9.408;2022-10-31T14:53:45;15.43;;;7.88;;
64065;SDS011;50318;54.760;9.408;2022-10-31T14:56:17;19.42;;;9.70;;
64065;SDS011;50318;54.760;9.408;2022-10-31T14:58:48;17.35;;;9.77;;
64065;SDS011;50318;54.760;9.408;2022-10-31T15:01:17;21.73;;;12.60;;
64065;SDS011;50318;54.760;9.408;2022-10-31T15:03:50;25.85;;;15.93;;
64065;SDS011;50318;54.760;9.408;2022-10-31T15:06:20;21.40;;;18.10;;
64065;SDS011;50318;54.760;9.408;2022-10-31T15:08:49;26.73;;;17.67;;
64065;SDS011;50318;54.760;9.408;2022-10-31T15:13:50;27.45;;;20.02;;
64065;SDS011;50318;54.760;9.408;2022-10-31T15:16:35;25.10;;;19.75;;
64065;SDS011;50318;54.760;9.408;2022-10-31T15:19:12;26.80;;;19.75;;
64065;SDS011;50318;54.760;9.408;2022-10-31T15:21:43;25.30;;;20.33;;
64065;SDS011;50318;54.760;9.408;2022-10-31T15:24:11;30.80;;;20.33;;
64065;SDS011;50318;54.760;9.408;2022-10-31T15:26:44;28.53;;;19.73;;
64065;SDS011;50318;54.760;9.408;2022-10-31T15:29:12;24.75;;;20.38;;
64065;SDS011;50318;54.760;9.408;2022-10-31T15:32:08;28.65;;;20.63;;
64065;SDS011;50318;54.760;9.408;2022-10-31T15:34:35;27.05;;;20.83;;
64065;SDS011;50318;54.760;9.408;2022-10-31T15:37:16;28.17;;;21.63;;
64065;SDS011;50318;54.760;9.408;2022-10-31T15:39:44;32.33;;;21.90;;
64065;SDS011;50318;54.760;9.408;2022-10-31T15:42:24;30.13;;;22.20;;
64065;SDS011;50318;54.760;9.408;2022-10-31T15:44:57;30.00;;;21.55;;
64065;SDS011;50318;54.760;9.408;2022-10-31T15:47:26;27.67;;;20.35;;
64065;SDS011;50318;54.760;9.408;2022-10-31T15:49:55;32.00;;;21.95;;
64065;SDS011;50318;54.760;9.408;2022-10-31T15:52:40;34.20;;;21.77;;
64065;SDS011;50318;54.760;9.408;2022-10-31T15:57:38;32.38;;;22.58;;
64065;SDS011;50318;54.760;9.408;2022-10-31T16:00:05;31.23;;;23.50;;
64065;SDS011;50318;54.760;9.408;2022-10-31T16:02:33;28.67;;;22.73;;
64065;SDS011;50318;54.760;9.408;2022-10-31T16:05:00;30.10;;;22.60;;
64065;SDS011;50318;54.760;9.408;2022-10-31T16:07:26;26.30;;;22.17;;
64065;SDS011;50318;54.760;9.408;2022-10-31T16:10:24;35.50;;;22.55;;
64065;SDS011;50318;54.760;9.408;2022-10-31T16:12:51;32.92;;;22.65;;
64065;SDS011;50318;54.760;9.408;2022-10-31T16:15:19;29.00;;;21.67;;
64065;SDS011;50318;54.760;9.408;2022-10-31T16:17:47;33.83;;;21.60;;
64065;SDS011;50318;54.760;9.408;2022-10-31T16:20:18;26.52;;;20.83;;
64065;SDS011;50318;54.760;9.408;2022-10-31T16:22:50;28.15;;;20.02;;
64065;SDS011;50318;54.760;9.408;2022-10-31T16:25:25;29.52;;;19.73;;
64065;SDS011;50318;54.760;9.408;2022-10-31T16:28:01;29.77;;;20.67;;
64065;SDS011;50318;54.760;9.408;2022-10-31T16:30:40;32.00;;;20.15;;
64065;SDS011;50318;54.760;9.408;2022-10-31T16:38:56;28.20;;;20.00;;
64065;SDS011;50318;54.760;9.408;2022-10-31T16:41:28;26.48;;;20.08;;
64065;SDS011;50318;54.760;9.408;2022-10-31T16:43:54;33.35;;;20.25;;
64065;SDS011;50318;54.760;9.408;2022-10-31T16:46:23;32.00;;;20.40;;
64065;SDS011;50318;54.760;9.408;2022-10-31T16:48:50;29.65;;;19.75;;
64065;SDS011;50318;54.760;9.408;2022-10-31T16:51:16;30.90;;;21.70;;
64065;SDS011;50318;54.760;9.408;2022-10-31T16:53:42;33.25;;;19.80;;
64065;SDS011;50318;54.760;9.408;2022-10-31T16:56:13;33.05;;;20.52;;
64065;SDS011;50318;54.760;9.408;2022-10-31T16:58:41;25.52;;;20.10;;
64065;SDS011;50318;54.760;9.408;2022-10-31T17:01:08;24.13;;;20.05;;
64065;SDS011;50318;54.760;9.408;2022-10-31T17:03:34;29.60;;;19.70;;
64065;SDS011;50318;54.760;9.408;2022-10-31T17:06:00;30.02;;;19.63;;
64065;SDS011;50318;54.760;9.408;2022-10-31T17:08:35;26.92;;;18.35;;
64065;SDS011;50318;54.760;9.408;2022-10-31T17:11:00;29.40;;;20.83;;
64065;SDS011;50318;54.760;9.408;2022-10-31T17:13:28;32.88;;;22.08;;
64065;SDS011;50318;54.760;9.408;2022-10-31T17:15:58;34.75;;;21.58;;
64065;SDS011;50318;54.760;9.408;2022-10-31T17:18:25;32.03;;;21.67;;
64065;SDS011;50318;54.760;9.408;2022-10-31T17:20:58;33.90;;;22.75;;
64065;SDS011;50318;54.760;9.408;2022-10-31T17:23:26;34.33;;;21.90;;
64065;SDS011;50318;54.760;9.408;2022-10-31T17:25:52;32.55;;;21.52;;
64065;SDS011;50318;54.760;9.408;2022-10-31T17:30:52;32.05;;;22.95;;
64065;SDS011;50318;54.760;9.408;2022-10-31T17:33:19;30.20;;;21.02;;
64065;SDS011;50318;54.760;9.408;2022-10-31T17:35:57;31.25;;;21.73;;